Latest Weather Observations for Charleville

IDQ60801

Issued at 2:02 pm EST Friday 16 November 2018 (issued every 10 minutes, with the page automatically refreshed every 10 minutes)

About weather observations | Map of weather stations | Latest weather observations for QLD | Other Formats
Station Details ID: 044021 Name: CHARLEVILLE AERO Lat: -26.41 Lon: 146.26 Height: 301.6 m
Data from the previous 72 hours. | See also: Recent months at Charleville
Date/Time
EST
Temp
°C
App
Temp
°C
Dew
Point
°C
Rel
Hum
%
Delta-T
°C
Wind Press
QNH
hPa
Press
MSL
hPa
Rain since
9am
mm
Dir  Spd
km/h
Gust
km/h
Spd
kts
Gust
kts
16/02:00pm 36.2 32.3 3.4 13 17.5 SSW 13 26 7 14 1012.7 1011.0 0.0
16/01:30pm 36.6 32.8 3.7 13 17.6 WSW 13 24 7 13 1013.3 1011.6 0.0
16/01:00pm 35.9 32.9 4.2 14 17.0 W 9 17 5 9 1013.8 1012.2 0.0
16/12:30pm 35.1 32.4 5.5 16 16.2 SSE 9 13 5 7 1014.3 1012.7 0.0
16/12:00pm 33.7 29.9 7.6 20 14.6 NNW 17 24 9 13 1015.0 1013.3 0.0
16/11:30am 33.9 30.6 6.3 18 15.2 S 13 19 7 10 1015.2 1013.5 0.0
16/11:00am 33.9 30.0 7.0 19 15.0 NE 17 28 9 15 1015.8 1014.1 0.0
16/10:30am 33.8 30.3 7.0 19 14.9 N 15 28 8 15 1016.3 1014.6 0.0
16/10:00am 33.0 30.2 8.5 22 13.9 N 13 22 7 12 1016.4 1014.7 0.0
16/09:30am 32.2 30.8 9.7 25 13.0 NW 7 17 4 9 1016.5 1014.8 0.0
16/09:00am 31.0 28.8 9.3 26 12.3 N 11 17 6 9 1016.7 1015.1 0.0
16/08:30am 29.7 27.2 8.2 26 11.9 N 11 15 6 8 1016.7 1015.1 0.0
16/08:00am 29.4 26.2 6.7 24 12.3 NE 13 19 7 10 1016.8 1015.2 0.0
16/07:30am 28.1 24.8 6.2 25 11.7 ENE 13 22 7 12 1016.6 1015.0 0.0
16/07:00am 26.3 23.5 6.9 29 10.3 ESE 11 15 6 8 1016.3 1014.6 0.0
16/06:30am 23.6 21.1 6.4 33 9.0 S 9 15 5 8 1016.2 1014.5 0.0
16/06:00am 21.8 20.4 7.2 39 7.6 ESE 4 9 2 5 1015.9 1014.2 0.0
16/05:30am 19.1 17.8 7.5 47 6.0 S 4 9 2 5 1015.7 1014.0 0.0
16/05:00am 19.4 17.4 7.2 45 6.3 SSE 7 9 4 5 1015.2 1013.5 0.0
16/04:30am 19.8 18.3 6.9 43 6.6 WNW 4 7 2 4 1014.9 1013.2 0.0
16/04:00am 20.8 18.8 7.1 41 7.1 E 7 7 4 4 1014.4 1012.8 0.0
16/03:30am 20.9 18.5 6.8 40 7.3 SSE 9 11 5 6 1014.1 1012.5 0.0
16/03:00am 21.1 20.3 6.6 39 7.5 CALM 0 2 0 1 1014.1 1012.5 0.0
16/02:30am 21.7 19.7 6.4 37 7.9 SSE 6 7 3 4 1014.2 1012.6 0.0
16/02:00am 22.5 19.9 5.9 34 8.5 SSE 9 11 5 6 1014.3 1012.7 0.0
16/01:30am 23.1 20.5 6.0 33 8.8 SE 9 13 5 7 1014.3 1012.7 0.0
16/01:00am 21.9 20.9 5.8 35 8.2 CALM 0 0 0 0 1014.6 1012.9 0.0
16/12:30am 22.7 20.6 5.6 33 8.7 SE 6 7 3 4 1014.9 1013.2 0.0
16/12:00am 23.3 22.3 5.7 32 9.0 CALM 0 0 0 0 1015.2 1013.5 0.0
 
Date/Time
EST
Temp
°C
App
Temp
°C
Dew
Point
°C
Rel
Hum
%
Delta-T
°C
Wind Press
QNH
hPa
Press
MSL
hPa
Rain since
9am
mm
Dir  Spd
km/h
Gust
km/h
Spd
kts
Gust
kts
15/11:30pm 24.1 21.8 5.9 31 9.4 SSE 7 9 4 5 1015.4 1013.7 0.0
15/11:00pm 24.4 21.7 5.7 30 9.7 SE 9 9 5 5 1015.4 1013.7 0.0
15/10:30pm 24.5 22.2 5.8 30 9.7 SSE 7 9 4 5 1015.5 1013.8 0.0
15/10:00pm 25.1 22.9 5.3 28 10.2 SE 6 7 3 4 1015.7 1014.0 0.0
15/09:30pm 25.7 23.3 5.3 27 10.5 SE 7 9 4 5 1015.6 1013.9 0.0
15/09:00pm 26.5 24.3 5.5 26 10.9 SSE 6 9 3 5 1015.4 1013.7 0.0
15/08:30pm 27.0 25.2 5.3 25 11.3 SSE 4 9 2 5 1015.2 1013.5 0.0
15/08:00pm 28.3 27.1 4.6 22 12.3 CALM 0 0 0 0 1014.9 1013.2 0.0
15/07:30pm 30.3 27.9 4.1 19 13.6 SSE 6 9 3 5 1014.6 1012.9 0.0
15/07:00pm 31.9 28.5 3.8 17 14.7 SSE 11 13 6 7 1014.4 1012.8 0.0
15/06:30pm 33.3 28.2 3.2 15 15.7 SSE 19 26 10 14 1014.2 1012.6 0.0
15/06:00pm 34.2 28.1 2.9 14 16.3 S 24 35 13 19 1013.9 1012.3 0.0
15/05:30pm 35.4 30.3 2.8 13 17.1 S 19 30 10 16 1013.7 1012.1 0.0
15/05:00pm 34.5 29.8 3.1 14 16.5 SSW 17 24 9 13 1013.7 1012.1 0.0
15/04:30pm 35.2 30.0 3.7 14 16.7 S 20 28 11 15 1013.7 1012.1 0.0
15/04:00pm 35.5 31.1 4.9 15 16.6 S 17 33 9 18 1013.6 1012.0 0.0
15/03:30pm 34.2 31.5 5.7 17 15.6 SSW 9 17 5 9 1013.8 1012.2 0.0
15/03:00pm 34.6 31.2 6.0 17 15.7 SSE 13 20 7 11 1014.1 1012.5 0.0
15/02:30pm 35.7 32.1 5.1 15 16.7 SW 13 32 7 17 1014.1 1012.5 0.0
15/02:00pm 34.3 30.7 6.6 18 15.3 SW 15 22 8 12 1014.6 1012.9 0.0
15/01:30pm 34.8 31.3 7.0 18 15.5 S 15 20 8 11 1015.0 1013.3 0.0
15/01:00pm 33.9 31.0 6.3 18 15.2 SSE 11 17 6 9 1015.4 1013.7 0.0
15/12:30pm 33.3 31.3 7.3 20 14.5 NNE 7 11 4 6 1015.8 1014.1 0.0
15/12:00pm 34.2 31.5 7.3 19 15.0 SW 11 22 6 12 1016.3 1014.6 0.0
15/11:30am 33.5 31.9 8.9 22 14.1 ENE 7 15 4 8 1016.7 1015.1 0.0
15/11:00am 32.7 30.5 9.5 24 13.3 ENE 11 26 6 14 1017.2 1015.6 0.0
15/10:30am 31.6 29.9 9.8 26 12.5 E 9 13 5 7 1017.5 1015.9 0.0
15/10:00am 31.1 29.0 9.9 27 12.2 W 11 17 6 9 1017.7 1016.1 0.0
15/09:30am 30.6 28.7 10.5 29 11.6 W 11 19 6 10 1018.1 1016.4 0.0
15/09:00am 29.9 27.9 11.4 32 10.8 NNW 13 19 7 10 1018.1 1016.4 0.0
15/08:30am 28.8 27.3 11.8 35 10.0 N 11 17 6 9 1017.9 1016.3 0.0
15/08:00am 27.1 26.6 12.7 41 8.5 N 7 11 4 6 1017.7 1016.1 0.0
15/07:30am 25.9 25.0 12.7 44 7.8 NNW 9 11 5 6 1017.5 1015.9 0.0
15/07:00am 24.5 24.5 12.5 47 7.0 N 4 9 2 5 1017.2 1015.6 0.0
15/06:30am 23.5 24.5 13.1 52 6.1 CALM 0 0 0 0 1016.9 1015.3 0.0
15/06:00am 20.4 21.3 12.9 62 4.3 CALM 0 0 0 0 1016.6 1015.0 0.0
15/05:30am 19.3 20.1 12.6 65 3.8 CALM 0 0 0 0 1016.2 1014.5 0.0
15/05:00am 19.8 20.7 12.8 64 4.0 CALM 0 0 0 0 1015.7 1014.0 0.0
15/04:30am 20.3 21.2 12.8 62 4.3 CALM 0 0 0 0 1015.0 1013.3 0.0
15/04:00am 20.8 21.7 12.8 60 4.6 CALM 0 0 0 0 1014.7 1013.0 0.0
15/03:30am 21.6 22.1 12.7 57 5.1 ENE 2 7 1 4 1014.4 1012.8 0.0
15/03:00am 22.8 22.7 13.3 55 5.6 NNE 6 9 3 5 1014.3 1012.7 0.0
15/02:30am 22.5 21.9 12.4 52 5.8 NE 7 9 4 5 1014.4 1012.8 0.0
15/02:00am 23.3 22.9 12.9 52 6.1 ENE 7 11 4 6 1014.4 1012.8 0.0
15/01:30am 23.5 22.7 12.8 51 6.2 ENE 9 11 5 6 1014.8 1013.1 0.0
15/01:00am 22.6 22.0 12.3 52 5.9 NE 7 9 4 5 1015.1 1013.4 0.0
15/12:30am 23.2 22.7 12.2 50 6.3 SE 6 7 3 4 1015.6 1013.9 0.0
15/12:00am 23.9 23.7 11.9 47 6.9 NE 4 7 2 4 1015.9 1014.2 0.0
 
Date/Time
EST
Temp
°C
App
Temp
°C
Dew
Point
°C
Rel
Hum
%
Delta-T
°C
Wind Press
QNH
hPa
Press
MSL
hPa
Rain since
9am
mm
Dir  Spd
km/h
Gust
km/h
Spd
kts
Gust
kts
14/11:30pm 25.5 24.9 11.7 42 8.0 ENE 6 7 3 4 1016.1 1014.4 0.0
14/11:00pm 26.1 25.5 11.8 41 8.3 ENE 6 7 3 4 1016.2 1014.5 0.0
14/10:30pm 26.7 25.2 12.0 40 8.6 E 11 15 6 8 1016.2 1014.5 0.0
14/10:00pm 26.5 24.7 12.2 41 8.3 E 13 17 7 9 1016.2 1014.5 0.0
14/09:30pm 26.6 24.5 11.1 38 8.9 E 13 15 7 8 1016.0 1014.3 0.0
14/09:00pm 26.7 25.9 11.2 38 8.9 SSE 6 7 3 4 1015.5 1013.8 0.0
14/08:30pm 27.3 25.1 10.9 36 9.4 SE 13 15 7 8 1015.2 1013.5 0.0
14/08:00pm 27.6 25.4 10.8 35 9.6 SSE 13 19 7 10 1015.3 1013.6 0.0
14/07:30pm 28.2 23.4 10.4 33 10.2 SSE 26 37 14 20 1015.2 1013.5 0.0
14/07:00pm 30.2 26.4 9.1 27 11.9 SSE 19 28 10 15 1014.6 1012.9 0.0
14/06:30pm 31.1 28.7 8.8 25 12.6 N 11 15 6 8 1013.7 1012.1 0.0
14/06:00pm 31.5 29.1 8.5 24 13.0 N 11 15 6 8 1013.3 1011.6 0.0
14/05:30pm 31.7 29.7 8.7 24 13.0 NNW 9 15 5 8 1013.2 1011.5 0.0
14/05:00pm 32.9 30.4 8.4 22 13.9 W 11 20 6 11 1013.0 1011.3 0.0
14/04:30pm 33.3 30.8 8.0 21 14.3 SW 11 19 6 10 1013.0 1011.3 0.0
14/04:00pm 32.8 29.8 7.6 21 14.1 W 13 19 7 10 1013.0 1011.3 0.0
14/03:30pm 32.8 28.5 6.9 20 14.3 WSW 19 28 10 15 1013.2 1011.5 0.0
14/03:00pm 33.6 29.8 7.6 20 14.6 WSW 17 28 9 15 1013.2 1011.5 0.0
14/02:30pm 33.5 29.7 7.5 20 14.5 NW 17 26 9 14 1013.5 1011.8 0.0
14/02:00pm 33.0 31.0 8.5 22 13.9 NW 9 19 5 10 1014.0 1012.4 0.0
14/01:30pm 32.1 28.2 7.0 21 13.8 WNW 17 26 9 14 1014.4 1012.8 0.0
14/01:00pm 32.0 29.0 7.6 22 13.6 WSW 13 20 7 11 1014.8 1013.1 0.0
14/12:30pm 31.2 27.9 8.2 24 12.9 WSW 15 28 8 15 1015.2 1013.5 0.0
14/12:00pm 31.0 25.6 8.1 24 12.8 WNW 26 37 14 20 1015.4 1013.7 0.0
14/11:30am 31.3 27.3 8.9 25 12.7 NW 20 35 11 19 1015.8 1014.1 0.0
14/11:00am 30.4 26.9 8.7 26 12.2 NNW 17 30 9 16 1016.0 1014.3 0.0
14/10:30am 29.8 24.5 9.9 29 11.4 NNW 28 39 15 21 1016.4 1014.7 0.0
14/10:00am 29.5 24.5 9.6 29 11.3 NNW 26 35 14 19 1016.3 1014.6 0.0
14/09:30am 28.1 22.4 9.9 32 10.3 NNW 30 39 16 21 1016.4 1014.7 0.0
14/09:00am 28.1 23.5 11.2 35 9.8 N 26 35 14 19 1016.1 1014.4 0.0
14/08:30am 26.4 21.2 10.1 36 9.2 N 28 35 15 19 1016.0 1014.3 0.0
14/08:00am 26.0 21.3 9.4 35 9.2 N 24 33 13 18 1015.9 1014.2 0.0
14/07:30am 25.2 20.2 9.5 37 8.7 NNW 26 37 14 20 1015.6 1013.9 0.0
14/07:27am 25.1 19.7 9.4 37 8.7 NNW 28 37 15 20 1015.6 1013.9 0.0
14/07:00am 23.7 21.0 8.9 39 8.1 N 13 19 7 10 1015.1 1013.4 0.0
14/06:30am 23.7 20.8 6.5 33 9.0 N 11 13 6 7 1014.6 1012.9 0.0
14/06:00am 23.5 20.6 4.9 30 9.4 N 9 11 5 6 1014.0 1012.4 0.0
14/05:30am 23.7 20.9 5.1 30 9.5 NE 9 11 5 6 1013.6 1012.0 0.0
14/05:00am 22.8 21.1 8.5 40 7.7 E 7 9 4 5 1012.9 1011.2 0.0
14/04:30am 22.9 21.6 10.0 44 7.1 SSE 7 9 4 5 1012.7 1011.0 0.0
14/04:00am 22.8 21.7 10.6 46 6.8 SSE 7 9 4 5 1012.3 1010.6 0.0
14/03:30am 23.2 22.2 10.3 44 7.2 SSE 6 7 3 4 1012.2 1010.5 0.0
14/03:00am 23.7 22.0 10.0 42 7.6 SSE 9 9 5 5 1012.2 1010.5 0.0
14/02:30am 24.1 23.2 11.4 45 7.2 SSW 7 11 4 6 1012.2 1010.5 0.0
14/02:00am 24.5 22.9 11.5 44 7.4 WSW 11 20 6 11 1012.4 1010.7 0.0
14/01:30am 24.3 23.1 11.6 45 7.3 SW 9 13 5 7 1012.3 1010.6 0.0
14/01:00am 25.1 24.6 10.9 41 8.1 S 4 9 2 5 1012.6 1010.9 0.0
14/12:30am 26.1 24.8 9.9 36 9.1 SW 7 11 4 6 1012.8 1011.1 0.0
14/12:00am 27.1 24.8 9.0 32 10.1 SSW 11 15 6 8 1013.4 1011.7 0.0
 
Date/Time
EST
Temp
°C
App
Temp
°C
Dew
Point
°C
Rel
Hum
%
Delta-T
°C
Wind Press
QNH
hPa
Press
MSL
hPa
Rain since
9am
mm
Dir  Spd
km/h
Gust
km/h
Spd
kts
Gust
kts
13/11:30pm 28.3 25.6 3.9 21 12.5 WSW 7 17 4 9 1013.4 1011.7 0.0
13/11:00pm 28.9 25.6 2.2 18 13.3 SE 9 19 5 10 1013.4 1011.7 0.0
13/10:30pm 29.1 24.6 2.4 18 13.4 ENE 15 22 8 12 1012.9 1011.2 0.0
13/10:00pm 29.3 24.9 2.5 18 13.5 ENE 15 20 8 11 1012.9 1011.2 0.0
13/09:30pm 28.5 24.7 4.1 21 12.6 E 13 17 7 9 1013.0 1011.3 0.0
13/09:00pm 27.3 24.6 5.6 25 11.4 E 9 11 5 6 1013.1 1011.4 0.0
13/08:30pm 27.8 24.9 4.8 23 11.9 ESE 9 9 5 5 1012.8 1011.1 0.0
13/08:00pm 28.4 26.0 5.3 23 12.1 SE 7 9 4 5 1012.5 1010.8 0.0
13/07:30pm 29.8 27.0 5.1 21 13.0 ESE 9 11 5 6 1012.3 1010.6 0.0
13/07:00pm 30.9 29.2 3.8 18 14.1 ESE 2 6 1 3 1012.1 1010.4 0.0
13/06:30pm 33.1 30.5 3.0 15 15.6 NE 6 7 3 4 1012.0 1010.3 0.0
13/06:00pm 33.8 31.1 2.6 14 16.2 ESE 6 9 3 5 1011.5 1009.8 0.0
13/05:30pm 33.8 30.1 2.6 14 16.2 SSE 11 15 6 8 1011.3 1009.6 0.0
13/05:00pm 34.3 31.5 3.0 14 16.4 S 7 13 4 7 1011.2 1009.5 0.0
13/04:30pm 34.7 31.2 3.3 14 16.5 SE 11 15 6 8 1011.4 1009.7 0.0
13/04:00pm 34.7 30.0 3.3 14 16.6 SE 17 22 9 12 1011.6 1009.9 0.0
13/03:30pm 34.5 30.5 3.1 14 16.5 NE 13 26 7 14 1011.7 1010.0 0.0
13/03:00pm 33.5 30.1 4.2 16 15.6 E 11 17 6 9 1011.9 1010.2 0.0
13/02:30pm 34.3 31.3 4.0 15 16.1 NNE 9 19 5 10 1012.3 1010.6 0.0

Other Formats:

Comma delimited format used in spreadsheet applications
http://www.bom.gov.au/fwo/IDQ60801/IDQ60801.94510.axf

JavaScript Object Notation format (JSON) in row-major order
http://www.bom.gov.au/fwo/IDQ60801/IDQ60801.94510.json